sensor_id;sensor_type;location;lat;lon;timestamp;temperature;humidity
75451;DHT22;64029;48.244;9.188;2022-10-31T00:01:23;8.00;76.90
75451;DHT22;64029;48.244;9.188;2022-10-31T00:03:52;8.00;77.20
75451;DHT22;64029;48.244;9.188;2022-10-31T00:06:19;7.90;76.90
75451;DHT22;64029;48.244;9.188;2022-10-31T00:08:46;7.90;76.90
75451;DHT22;64029;48.244;9.188;2022-10-31T00:11:13;7.90;78.40
75451;DHT22;64029;48.244;9.188;2022-10-31T00:13:40;7.80;77.90
75451;DHT22;64029;48.244;9.188;2022-10-31T00:16:13;7.80;78.20
75451;DHT22;64029;48.244;9.188;2022-10-31T00:18:41;7.80;78.70
75451;DHT22;64029;48.244;9.188;2022-10-31T00:21:09;7.80;78.10
75451;DHT22;64029;48.244;9.188;2022-10-31T00:23:36;7.70;77.80
75451;DHT22;64029;48.244;9.188;2022-10-31T00:26:03;7.70;77.60
75451;DHT22;64029;48.244;9.188;2022-10-31T00:28:31;7.70;77.40
75451;DHT22;64029;48.244;9.188;2022-10-31T00:31:00;7.60;77.20
75451;DHT22;64029;48.244;9.188;2022-10-31T00:33:28;7.60;77.30
75451;DHT22;64029;48.244;9.188;2022-10-31T00:35:55;7.70;77.60
75451;DHT22;64029;48.244;9.188;2022-10-31T00:38:24;7.70;77.80
75451;DHT22;64029;48.244;9.188;2022-10-31T00:40:50;7.60;77.60
75451;DHT22;64029;48.244;9.188;2022-10-31T00:43:17;7.60;77.60
75451;DHT22;64029;48.244;9.188;2022-10-31T00:45:44;7.60;77.50
75451;DHT22;64029;48.244;9.188;2022-10-31T00:48:11;7.60;77.50
75451;DHT22;64029;48.244;9.188;2022-10-31T00:50:38;7.60;77.60
75451;DHT22;64029;48.244;9.188;2022-10-31T00:53:06;7.60;77.60
75451;DHT22;64029;48.244;9.188;2022-10-31T00:55:34;7.50;78.00
75451;DHT22;64029;48.244;9.188;2022-10-31T00:58:01;7.50;77.30
75451;DHT22;64029;48.244;9.188;2022-10-31T01:00:27;7.40;77.20
75451;DHT22;64029;48.244;9.188;2022-10-31T01:02:54;7.40;77.30
75451;DHT22;64029;48.244;9.188;2022-10-31T01:05:21;7.40;77.40
75451;DHT22;64029;48.244;9.188;2022-10-31T01:07:48;7.40;77.90
75451;DHT22;64029;48.244;9.188;2022-10-31T01:10:15;7.30;78.50
75451;DHT22;64029;48.244;9.188;2022-10-31T01:12:46;7.30;77.90
75451;DHT22;64029;48.244;9.188;2022-10-31T01:15:16;7.30;77.70
75451;DHT22;64029;48.244;9.188;2022-10-31T01:17:43;7.20;78.10
75451;DHT22;64029;48.244;9.188;2022-10-31T01:20:11;7.20;78.70
75451;DHT22;64029;48.244;9.188;2022-10-31T01:22:38;7.20;78.40
75451;DHT22;64029;48.244;9.188;2022-10-31T01:25:07;7.10;78.00
75451;DHT22;64029;48.244;9.188;2022-10-31T01:27:33;7.10;77.80
75451;DHT22;64029;48.244;9.188;2022-10-31T01:30:02;7.10;77.70
75451;DHT22;64029;48.244;9.188;2022-10-31T01:32:29;7.10;77.60
75451;DHT22;64029;48.244;9.188;2022-10-31T01:34:56;7.10;77.90
75451;DHT22;64029;48.244;9.188;2022-10-31T01:37:23;7.10;78.10
75451;DHT22;64029;48.244;9.188;2022-10-31T01:39:50;7.00;77.80
75451;DHT22;64029;48.244;9.188;2022-10-31T01:42:20;7.00;78.40
75451;DHT22;64029;48.244;9.188;2022-10-31T01:44:53;7.00;77.50
75451;DHT22;64029;48.244;9.188;2022-10-31T01:47:30;7.00;78.30
75451;DHT22;64029;48.244;9.188;2022-10-31T01:50:01;6.90;77.50
75451;DHT22;64029;48.244;9.188;2022-10-31T01:52:31;6.90;77.50
75451;DHT22;64029;48.244;9.188;2022-10-31T01:55:02;6.90;77.70
75451;DHT22;64029;48.244;9.188;2022-10-31T01:57:31;6.90;77.70
75451;DHT22;64029;48.244;9.188;2022-10-31T02:00:02;6.90;77.50
75451;DHT22;64029;48.244;9.188;2022-10-31T02:02:31;6.90;77.60
75451;DHT22;64029;48.244;9.188;2022-10-31T02:05:00;6.90;77.50
75451;DHT22;64029;48.244;9.188;2022-10-31T02:07:31;6.90;77.90
75451;DHT22;64029;48.244;9.188;2022-10-31T02:10:01;6.90;77.90
75451;DHT22;64029;48.244;9.188;2022-10-31T02:12:29;6.90;78.00
75451;DHT22;64029;48.244;9.188;2022-10-31T02:14:57;6.80;78.00
75451;DHT22;64029;48.244;9.188;2022-10-31T02:17:24;6.80;78.20
75451;DHT22;64029;48.244;9.188;2022-10-31T02:19:57;6.90;78.40
75451;DHT22;64029;48.244;9.188;2022-10-31T02:22:32;6.90;78.60
75451;DHT22;64029;48.244;9.188;2022-10-31T02:25:13;6.80;78.40
75451;DHT22;64029;48.244;9.188;2022-10-31T02:28:00;6.80;79.00
75451;DHT22;64029;48.244;9.188;2022-10-31T02:30:37;6.80;79.60
75451;DHT22;64029;48.244;9.188;2022-10-31T02:33:18;6.70;78.70
75451;DHT22;64029;48.244;9.188;2022-10-31T02:35:53;6.70;78.30
75451;DHT22;64029;48.244;9.188;2022-10-31T02:38:29;6.70;78.20
75451;DHT22;64029;48.244;9.188;2022-10-31T02:41:04;6.60;78.50
75451;DHT22;64029;48.244;9.188;2022-10-31T02:43:42;6.60;79.00
75451;DHT22;64029;48.244;9.188;2022-10-31T02:46:14;6.60;80.00
75451;DHT22;64029;48.244;9.188;2022-10-31T02:48:48;6.60;79.30
75451;DHT22;64029;48.244;9.188;2022-10-31T02:51:17;6.50;78.60
75451;DHT22;64029;48.244;9.188;2022-10-31T02:53:44;6.50;78.50
75451;DHT22;64029;48.244;9.188;2022-10-31T02:56:13;6.50;78.50
75451;DHT22;64029;48.244;9.188;2022-10-31T02:58:44;6.50;78.40
75451;DHT22;64029;48.244;9.188;2022-10-31T03:01:26;6.50;78.30
75451;DHT22;64029;48.244;9.188;2022-10-31T03:04:14;6.40;78.90
75451;DHT22;64029;48.244;9.188;2022-10-31T03:06:48;6.40;78.00
75451;DHT22;64029;48.244;9.188;2022-10-31T03:09:21;6.40;78.20
75451;DHT22;64029;48.244;9.188;2022-10-31T03:11:57;6.40;78.30
75451;DHT22;64029;48.244;9.188;2022-10-31T03:14:29;6.40;78.40
75451;DHT22;64029;48.244;9.188;2022-10-31T03:16:59;6.40;78.50
75451;DHT22;64029;48.244;9.188;2022-10-31T03:19:32;6.40;78.20
75451;DHT22;64029;48.244;9.188;2022-10-31T03:22:02;6.40;78.10
75451;DHT22;64029;48.244;9.188;2022-10-31T03:24:32;6.30;78.70
75451;DHT22;64029;48.244;9.188;2022-10-31T03:27:01;6.30;78.00
75451;DHT22;64029;48.244;9.188;2022-10-31T03:29:33;6.30;78.70
75451;DHT22;64029;48.244;9.188;2022-10-31T03:32:04;6.20;77.80
75451;DHT22;64029;48.244;9.188;2022-10-31T03:34:35;6.20;77.90
75451;DHT22;64029;48.244;9.188;2022-10-31T03:37:08;6.20;78.60
75451;DHT22;64029;48.244;9.188;2022-10-31T03:39:36;6.10;78.20
75451;DHT22;64029;48.244;9.188;2022-10-31T03:42:07;6.10;78.00
75451;DHT22;64029;48.244;9.188;2022-10-31T03:44:35;6.10;78.10
75451;DHT22;64029;48.244;9.188;2022-10-31T03:47:04;6.10;78.20
75451;DHT22;64029;48.244;9.188;2022-10-31T03:49:33;6.10;78.20
75451;DHT22;64029;48.244;9.188;2022-10-31T03:52:04;6.10;78.00
75451;DHT22;64029;48.244;9.188;2022-10-31T03:54:37;6.10;78.10
75451;DHT22;64029;48.244;9.188;2022-10-31T03:57:10;6.10;78.20
75451;DHT22;64029;48.244;9.188;2022-10-31T03:59:42;6.10;78.20
75451;DHT22;64029;48.244;9.188;2022-10-31T04:02:13;6.10;78.10
75451;DHT22;64029;48.244;9.188;2022-10-31T04:04:43;6.00;78.00
75451;DHT22;64029;48.244;9.188;2022-10-31T04:07:11;6.00;78.30
75451;DHT22;64029;48.244;9.188;2022-10-31T04:09:41;6.00;78.10
75451;DHT22;64029;48.244;9.188;2022-10-31T04:12:12;6.00;78.00
75451;DHT22;64029;48.244;9.188;2022-10-31T04:14:43;5.90;77.90
75451;DHT22;64029;48.244;9.188;2022-10-31T04:17:13;5.90;77.90
75451;DHT22;64029;48.244;9.188;2022-10-31T04:19:42;5.90;78.10
75451;DHT22;64029;48.244;9.188;2022-10-31T04:22:09;5.90;78.10
75451;DHT22;64029;48.244;9.188;2022-10-31T04:24:38;5.90;78.80
75451;DHT22;64029;48.244;9.188;2022-10-31T04:27:06;5.90;78.00
75451;DHT22;64029;48.244;9.188;2022-10-31T04:29:33;5.90;78.30
75451;DHT22;64029;48.244;9.188;2022-10-31T04:32:00;5.80;78.30
75451;DHT22;64029;48.244;9.188;2022-10-31T04:34:26;5.80;78.30
75451;DHT22;64029;48.244;9.188;2022-10-31T04:36:54;5.80;78.50
75451;DHT22;64029;48.244;9.188;2022-10-31T04:39:21;5.80;78.30
75451;DHT22;64029;48.244;9.188;2022-10-31T04:41:48;5.80;78.20
75451;DHT22;64029;48.244;9.188;2022-10-31T04:44:15;5.80;77.90
75451;DHT22;64029;48.244;9.188;2022-10-31T04:46:42;5.70;78.00
75451;DHT22;64029;48.244;9.188;2022-10-31T04:49:09;5.70;78.00
75451;DHT22;64029;48.244;9.188;2022-10-31T04:51:36;5.70;78.10
75451;DHT22;64029;48.244;9.188;2022-10-31T04:54:04;5.70;78.20
75451;DHT22;64029;48.244;9.188;2022-10-31T04:56:31;5.70;78.40
75451;DHT22;64029;48.244;9.188;2022-10-31T04:58:58;5.70;79.00
75451;DHT22;64029;48.244;9.188;2022-10-31T05:01:25;5.70;78.20
75451;DHT22;64029;48.244;9.188;2022-10-31T05:03:51;5.70;78.20
75451;DHT22;64029;48.244;9.188;2022-10-31T05:06:18;5.70;79.00
75451;DHT22;64029;48.244;9.188;2022-10-31T05:08:45;5.60;78.70
75451;DHT22;64029;48.244;9.188;2022-10-31T05:11:13;5.60;78.70
75451;DHT22;64029;48.244;9.188;2022-10-31T05:13:40;5.60;78.60
75451;DHT22;64029;48.244;9.188;2022-10-31T05:16:07;5.60;78.60
75451;DHT22;64029;48.244;9.188;2022-10-31T05:18:33;5.60;78.60
75451;DHT22;64029;48.244;9.188;2022-10-31T05:21:00;5.60;78.90
75451;DHT22;64029;48.244;9.188;2022-10-31T05:23:27;5.60;78.70
75451;DHT22;64029;48.244;9.188;2022-10-31T05:25:54;5.60;78.90
75451;DHT22;64029;48.244;9.188;2022-10-31T05:28:22;5.60;78.90
75451;DHT22;64029;48.244;9.188;2022-10-31T05:30:49;5.60;78.90
75451;DHT22;64029;48.244;9.188;2022-10-31T05:33:16;5.60;78.90
75451;DHT22;64029;48.244;9.188;2022-10-31T05:35:43;5.60;79.00
75451;DHT22;64029;48.244;9.188;2022-10-31T05:38:09;5.50;79.00
75451;DHT22;64029;48.244;9.188;2022-10-31T05:40:36;5.50;79.00
75451;DHT22;64029;48.244;9.188;2022-10-31T05:43:03;5.50;78.80
75451;DHT22;64029;48.244;9.188;2022-10-31T05:45:31;5.50;78.70
75451;DHT22;64029;48.244;9.188;2022-10-31T05:48:00;5.40;79.00
75451;DHT22;64029;48.244;9.188;2022-10-31T05:50:28;5.40;78.70
75451;DHT22;64029;48.244;9.188;2022-10-31T05:52:57;5.40;78.60
75451;DHT22;64029;48.244;9.188;2022-10-31T05:55:24;5.40;78.50
75451;DHT22;64029;48.244;9.188;2022-10-31T05:57:52;5.40;78.40
75451;DHT22;64029;48.244;9.188;2022-10-31T06:00:19;5.30;78.60
75451;DHT22;64029;48.244;9.188;2022-10-31T06:02:48;5.40;78.80
75451;DHT22;64029;48.244;9.188;2022-10-31T06:05:15;5.40;78.80
75451;DHT22;64029;48.244;9.188;2022-10-31T06:07:42;5.30;78.70
75451;DHT22;64029;48.244;9.188;2022-10-31T06:10:10;5.30;78.70
75451;DHT22;64029;48.244;9.188;2022-10-31T06:12:37;5.30;78.60
75451;DHT22;64029;48.244;9.188;2022-10-31T06:15:07;5.30;78.80
75451;DHT22;64029;48.244;9.188;2022-10-31T06:17:35;5.30;79.00
75451;DHT22;64029;48.244;9.188;2022-10-31T06:20:04;5.30;78.90
75451;DHT22;64029;48.244;9.188;2022-10-31T06:22:31;5.30;78.90
75451;DHT22;64029;48.244;9.188;2022-10-31T06:24:59;5.30;79.00
75451;DHT22;64029;48.244;9.188;2022-10-31T06:27:26;5.30;79.20
75451;DHT22;64029;48.244;9.188;2022-10-31T06:29:53;5.30;79.20
75451;DHT22;64029;48.244;9.188;2022-10-31T06:32:19;5.30;79.20
75451;DHT22;64029;48.244;9.188;2022-10-31T06:34:46;5.30;79.30
75451;DHT22;64029;48.244;9.188;2022-10-31T06:37:15;5.30;79.40
75451;DHT22;64029;48.244;9.188;2022-10-31T06:39:42;5.30;79.30
75451;DHT22;64029;48.244;9.188;2022-10-31T06:42:09;5.30;79.40
75451;DHT22;64029;48.244;9.188;2022-10-31T06:44:36;5.30;79.60
75451;DHT22;64029;48.244;9.188;2022-10-31T06:47:02;5.30;79.50
75451;DHT22;64029;48.244;9.188;2022-10-31T06:49:29;5.30;79.70
75451;DHT22;64029;48.244;9.188;2022-10-31T06:51:56;5.30;79.80
75451;DHT22;64029;48.244;9.188;2022-10-31T06:54:24;5.30;79.80
75451;DHT22;64029;48.244;9.188;2022-10-31T06:56:51;5.40;80.00
75451;DHT22;64029;48.244;9.188;2022-10-31T06:59:18;5.40;79.90
75451;DHT22;64029;48.244;9.188;2022-10-31T07:01:45;5.40;80.10
75451;DHT22;64029;48.244;9.188;2022-10-31T07:04:12;5.40;80.00
75451;DHT22;64029;48.244;9.188;2022-10-31T07:06:39;5.40;79.90
75451;DHT22;64029;48.244;9.188;2022-10-31T07:09:06;5.40;80.10
75451;DHT22;64029;48.244;9.188;2022-10-31T07:11:34;5.50;80.40
75451;DHT22;64029;48.244;9.188;2022-10-31T07:14:01;5.50;80.50
75451;DHT22;64029;48.244;9.188;2022-10-31T07:16:27;5.50;80.20
75451;DHT22;64029;48.244;9.188;2022-10-31T07:18:54;5.50;80.40
75451;DHT22;64029;48.244;9.188;2022-10-31T07:21:21;5.60;80.50
75451;DHT22;64029;48.244;9.188;2022-10-31T07:23:48;5.60;80.60
75451;DHT22;64029;48.244;9.188;2022-10-31T07:26:15;5.60;80.60
75451;DHT22;64029;48.244;9.188;2022-10-31T07:28:45;5.60;80.50
75451;DHT22;64029;48.244;9.188;2022-10-31T07:31:12;5.70;80.40
75451;DHT22;64029;48.244;9.188;2022-10-31T07:33:38;5.70;80.40
75451;DHT22;64029;48.244;9.188;2022-10-31T07:36:06;5.80;80.60
75451;DHT22;64029;48.244;9.188;2022-10-31T07:38:33;5.80;80.60
75451;DHT22;64029;48.244;9.188;2022-10-31T07:41:00;5.90;80.70
75451;DHT22;64029;48.244;9.188;2022-10-31T07:43:26;5.90;80.90
75451;DHT22;64029;48.244;9.188;2022-10-31T07:45:55;6.00;80.90
75451;DHT22;64029;48.244;9.188;2022-10-31T07:48:21;6.00;81.10
75451;DHT22;64029;48.244;9.188;2022-10-31T07:50:48;6.10;81.50
75451;DHT22;64029;48.244;9.188;2022-10-31T07:53:15;6.20;81.50
75451;DHT22;64029;48.244;9.188;2022-10-31T07:55:42;6.20;81.40
75451;DHT22;64029;48.244;9.188;2022-10-31T07:58:11;6.30;81.80
75451;DHT22;64029;48.244;9.188;2022-10-31T08:00:40;6.40;81.80
75451;DHT22;64029;48.244;9.188;2022-10-31T08:03:10;6.50;81.70
75451;DHT22;64029;48.244;9.188;2022-10-31T08:05:37;6.50;81.60
75451;DHT22;64029;48.244;9.188;2022-10-31T08:08:06;6.60;81.80
75451;DHT22;64029;48.244;9.188;2022-10-31T08:10:33;6.70;81.90
75451;DHT22;64029;48.244;9.188;2022-10-31T08:13:02;6.70;81.70
75451;DHT22;64029;48.244;9.188;2022-10-31T08:15:30;6.80;82.00
75451;DHT22;64029;48.244;9.188;2022-10-31T08:17:57;6.80;82.10
75451;DHT22;64029;48.244;9.188;2022-10-31T08:20:25;6.90;82.10
75451;DHT22;64029;48.244;9.188;2022-10-31T08:22:56;6.90;82.20
75451;DHT22;64029;48.244;9.188;2022-10-31T08:25:24;7.00;82.20
75451;DHT22;64029;48.244;9.188;2022-10-31T08:27:52;7.10;83.00
75451;DHT22;64029;48.244;9.188;2022-10-31T08:30:20;7.10;82.70
75451;DHT22;64029;48.244;9.188;2022-10-31T08:32:47;7.10;83.10
75451;DHT22;64029;48.244;9.188;2022-10-31T08:35:24;7.20;82.60
75451;DHT22;64029;48.244;9.188;2022-10-31T08:37:52;7.30;84.40
75451;DHT22;64029;48.244;9.188;2022-10-31T08:40:19;7.40;84.40
75451;DHT22;64029;48.244;9.188;2022-10-31T08:42:46;7.40;84.50
75451;DHT22;64029;48.244;9.188;2022-10-31T08:45:13;7.60;84.90
75451;DHT22;64029;48.244;9.188;2022-10-31T08:47:40;7.70;85.20
75451;DHT22;64029;48.244;9.188;2022-10-31T08:50:07;7.90;86.80
75451;DHT22;64029;48.244;9.188;2022-10-31T08:52:36;7.90;86.30
75451;DHT22;64029;48.244;9.188;2022-10-31T08:55:03;8.00;85.80
75451;DHT22;64029;48.244;9.188;2022-10-31T08:57:30;8.10;86.30
75451;DHT22;64029;48.244;9.188;2022-10-31T08:59:56;8.30;87.10
75451;DHT22;64029;48.244;9.188;2022-10-31T09:02:24;8.30;86.50
75451;DHT22;64029;48.244;9.188;2022-10-31T09:04:51;8.30;86.00
75451;DHT22;64029;48.244;9.188;2022-10-31T09:07:18;8.40;87.10
75451;DHT22;64029;48.244;9.188;2022-10-31T09:09:46;8.60;87.80
75451;DHT22;64029;48.244;9.188;2022-10-31T09:12:13;8.70;87.70
75451;DHT22;64029;48.244;9.188;2022-10-31T09:14:40;8.70;87.40
75451;DHT22;64029;48.244;9.188;2022-10-31T09:17:07;8.80;87.60
75451;DHT22;64029;48.244;9.188;2022-10-31T09:19:33;8.90;87.70
75451;DHT22;64029;48.244;9.188;2022-10-31T09:22:01;9.00;88.00
75451;DHT22;64029;48.244;9.188;2022-10-31T09:24:28;9.10;87.90
75451;DHT22;64029;48.244;9.188;2022-10-31T09:26:57;9.30;89.50
75451;DHT22;64029;48.244;9.188;2022-10-31T09:29:24;9.30;88.60
75451;DHT22;64029;48.244;9.188;2022-10-31T09:31:51;9.40;88.90
75451;DHT22;64029;48.244;9.188;2022-10-31T09:34:18;9.50;89.20
75451;DHT22;64029;48.244;9.188;2022-10-31T09:36:45;9.70;90.20
75451;DHT22;64029;48.244;9.188;2022-10-31T09:39:12;9.80;89.60
75451;DHT22;64029;48.244;9.188;2022-10-31T09:41:55;9.80;89.70
75451;DHT22;64029;48.244;9.188;2022-10-31T09:44:33;9.90;89.70
75451;DHT22;64029;48.244;9.188;2022-10-31T09:47:08;9.90;89.40
75451;DHT22;64029;48.244;9.188;2022-10-31T09:49:53;10.00;89.10
75451;DHT22;64029;48.244;9.188;2022-10-31T09:52:28;10.10;88.50
75451;DHT22;64029;48.244;9.188;2022-10-31T09:54:59;10.50;90.10
75451;DHT22;64029;48.244;9.188;2022-10-31T09:57:29;10.60;89.70
75451;DHT22;64029;48.244;9.188;2022-10-31T09:59:59;10.60;89.60
75451;DHT22;64029;48.244;9.188;2022-10-31T10:02:32;10.70;90.00
75451;DHT22;64029;48.244;9.188;2022-10-31T10:05:02;10.70;89.30
75451;DHT22;64029;48.244;9.188;2022-10-31T10:07:37;10.80;89.60
75451;DHT22;64029;48.244;9.188;2022-10-31T10:10:14;11.10;90.30
75451;DHT22;64029;48.244;9.188;2022-10-31T10:12:53;11.20;90.00
75451;DHT22;64029;48.244;9.188;2022-10-31T10:15:41;11.30;90.20
75451;DHT22;64029;48.244;9.188;2022-10-31T10:18:20;11.40;90.30
75451;DHT22;64029;48.244;9.188;2022-10-31T10:21:01;11.70;90.50
75451;DHT22;64029;48.244;9.188;2022-10-31T10:23:39;11.80;90.30
75451;DHT22;64029;48.244;9.188;2022-10-31T10:26:15;11.90;90.10
75451;DHT22;64029;48.244;9.188;2022-10-31T10:28:45;12.20;90.80
75451;DHT22;64029;48.244;9.188;2022-10-31T10:31:16;12.30;90.10
75451;DHT22;64029;48.244;9.188;2022-10-31T10:33:47;12.30;90.40
75451;DHT22;64029;48.244;9.188;2022-10-31T10:36:21;12.40;90.80
75451;DHT22;64029;48.244;9.188;2022-10-31T10:38:52;12.60;90.70
75451;DHT22;64029;48.244;9.188;2022-10-31T10:41:22;12.70;90.30
75451;DHT22;64029;48.244;9.188;2022-10-31T10:43:49;13.00;90.40
75451;DHT22;64029;48.244;9.188;2022-10-31T10:46:25;13.30;90.20
75451;DHT22;64029;48.244;9.188;2022-10-31T10:49:18;13.20;89.70
75451;DHT22;64029;48.244;9.188;2022-10-31T10:51:47;13.50;89.70
75451;DHT22;64029;48.244;9.188;2022-10-31T10:54:36;13.50;89.30
75451;DHT22;64029;48.244;9.188;2022-10-31T10:57:21;13.50;90.00
75451;DHT22;64029;48.244;9.188;2022-10-31T10:59:49;13.70;88.90
75451;DHT22;64029;48.244;9.188;2022-10-31T11:02:20;13.90;88.80
75451;DHT22;64029;48.244;9.188;2022-10-31T11:04:50;14.10;88.20
75451;DHT22;64029;48.244;9.188;2022-10-31T11:07:18;14.20;87.60
75451;DHT22;64029;48.244;9.188;2022-10-31T11:09:45;14.60;86.80
75451;DHT22;64029;48.244;9.188;2022-10-31T11:12:20;14.50;86.50
75451;DHT22;64029;48.244;9.188;2022-10-31T11:14:50;14.50;86.10
75451;DHT22;64029;48.244;9.188;2022-10-31T11:17:25;14.40;86.10
75451;DHT22;64029;48.244;9.188;2022-10-31T11:20:04;14.20;87.30
75451;DHT22;64029;48.244;9.188;2022-10-31T11:22:31;14.30;86.60
75451;DHT22;64029;48.244;9.188;2022-10-31T11:24:58;14.50;87.10
75451;DHT22;64029;48.244;9.188;2022-10-31T11:27:26;14.70;85.80
75451;DHT22;64029;48.244;9.188;2022-10-31T11:29:53;14.70;86.30
75451;DHT22;64029;48.244;9.188;2022-10-31T11:32:31;14.90;85.80
75451;DHT22;64029;48.244;9.188;2022-10-31T11:35:01;14.70;86.00
75451;DHT22;64029;48.244;9.188;2022-10-31T11:37:31;14.70;86.80
75451;DHT22;64029;48.244;9.188;2022-10-31T11:40:03;14.80;85.70
75451;DHT22;64029;48.244;9.188;2022-10-31T11:42:37;14.90;86.10
75451;DHT22;64029;48.244;9.188;2022-10-31T11:45:13;14.90;85.70
75451;DHT22;64029;48.244;9.188;2022-10-31T11:47:44;14.90;85.60
75451;DHT22;64029;48.244;9.188;2022-10-31T11:50:26;15.00;84.80
75451;DHT22;64029;48.244;9.188;2022-10-31T11:52:54;15.20;84.30
75451;DHT22;64029;48.244;9.188;2022-10-31T11:55:31;15.10;84.60
75451;DHT22;64029;48.244;9.188;2022-10-31T11:57:59;15.20;84.70
75451;DHT22;64029;48.244;9.188;2022-10-31T12:00:27;15.10;84.80
75451;DHT22;64029;48.244;9.188;2022-10-31T12:03:12;15.20;85.30
75451;DHT22;64029;48.244;9.188;2022-10-31T12:05:41;15.10;85.40
75451;DHT22;64029;48.244;9.188;2022-10-31T12:08:12;15.10;85.60
75451;DHT22;64029;48.244;9.188;2022-10-31T12:10:47;15.30;84.30
75451;DHT22;64029;48.244;9.188;2022-10-31T12:13:30;15.20;84.90
75451;DHT22;64029;48.244;9.188;2022-10-31T12:16:02;15.30;84.10
75451;DHT22;64029;48.244;9.188;2022-10-31T12:18:41;15.30;84.00
75451;DHT22;64029;48.244;9.188;2022-10-31T12:21:21;15.30;84.20
75451;DHT22;64029;48.244;9.188;2022-10-31T12:23:57;15.30;84.50
75451;DHT22;64029;48.244;9.188;2022-10-31T12:26:34;15.40;84.20
75451;DHT22;64029;48.244;9.188;2022-10-31T12:29:18;15.40;83.00
75451;DHT22;64029;48.244;9.188;2022-10-31T12:31:57;15.40;83.30
75451;DHT22;64029;48.244;9.188;2022-10-31T12:34:44;15.40;82.80
75451;DHT22;64029;48.244;9.188;2022-10-31T12:37:29;15.40;83.40
75451;DHT22;64029;48.244;9.188;2022-10-31T12:40:15;15.40;83.70
75451;DHT22;64029;48.244;9.188;2022-10-31T12:42:54;15.40;84.00
75451;DHT22;64029;48.244;9.188;2022-10-31T12:45:36;15.40;83.90
75451;DHT22;64029;48.244;9.188;2022-10-31T12:48:15;15.40;83.60
75451;DHT22;64029;48.244;9.188;2022-10-31T12:50:52;15.50;84.10
75451;DHT22;64029;48.244;9.188;2022-10-31T12:53:35;15.40;84.30
75451;DHT22;64029;48.244;9.188;2022-10-31T12:56:18;15.50;83.80
75451;DHT22;64029;48.244;9.188;2022-10-31T12:58:54;15.60;83.10
75451;DHT22;64029;48.244;9.188;2022-10-31T13:01:28;15.60;82.60
75451;DHT22;64029;48.244;9.188;2022-10-31T13:03:58;15.60;83.20
75451;DHT22;64029;48.244;9.188;2022-10-31T13:06:33;15.60;83.20
75451;DHT22;64029;48.244;9.188;2022-10-31T13:09:06;15.60;82.90
75451;DHT22;64029;48.244;9.188;2022-10-31T13:11:37;15.60;82.40
75451;DHT22;64029;48.244;9.188;2022-10-31T13:14:07;15.60;82.50
75451;DHT22;64029;48.244;9.188;2022-10-31T13:16:38;15.60;81.90
75451;DHT22;64029;48.244;9.188;2022-10-31T13:19:10;15.70;81.00
75451;DHT22;64029;48.244;9.188;2022-10-31T13:21:49;15.70;80.00
75451;DHT22;64029;48.244;9.188;2022-10-31T13:24:21;15.70;81.30
75451;DHT22;64029;48.244;9.188;2022-10-31T13:26:52;15.70;81.60
75451;DHT22;64029;48.244;9.188;2022-10-31T13:29:23;15.80;80.90
75451;DHT22;64029;48.244;9.188;2022-10-31T13:31:51;15.90;79.30
75451;DHT22;64029;48.244;9.188;2022-10-31T13:34:24;15.90;79.90
75451;DHT22;64029;48.244;9.188;2022-10-31T13:37:03;15.90;80.30
75451;DHT22;64029;48.244;9.188;2022-10-31T13:42:25;16.20;79.00
75451;DHT22;64029;48.244;9.188;2022-10-31T13:45:11;16.10;80.30
75451;DHT22;64029;48.244;9.188;2022-10-31T13:47:38;16.20;79.10
75451;DHT22;64029;48.244;9.188;2022-10-31T13:50:23;16.20;77.90
75451;DHT22;64029;48.244;9.188;2022-10-31T13:52:57;16.30;78.40
75451;DHT22;64029;48.244;9.188;2022-10-31T13:55:40;16.30;79.00
75451;DHT22;64029;48.244;9.188;2022-10-31T13:58:21;16.30;79.20
75451;DHT22;64029;48.244;9.188;2022-10-31T14:01:11;16.30;80.00
75451;DHT22;64029;48.244;9.188;2022-10-31T14:03:41;16.30;79.50
75451;DHT22;64029;48.244;9.188;2022-10-31T14:06:09;16.30;79.70
75451;DHT22;64029;48.244;9.188;2022-10-31T14:08:46;16.30;80.20
75451;DHT22;64029;48.244;9.188;2022-10-31T14:11:21;16.30;79.90
75451;DHT22;64029;48.244;9.188;2022-10-31T14:13:49;16.30;80.00
75451;DHT22;64029;48.244;9.188;2022-10-31T14:16:20;16.30;79.70
75451;DHT22;64029;48.244;9.188;2022-10-31T14:18:49;16.30;79.40
75451;DHT22;64029;48.244;9.188;2022-10-31T14:21:27;16.30;80.10
75451;DHT22;64029;48.244;9.188;2022-10-31T14:23:56;16.30;80.40
75451;DHT22;64029;48.244;9.188;2022-10-31T14:26:35;16.30;80.80
75451;DHT22;64029;48.244;9.188;2022-10-31T14:29:24;16.30;81.20
75451;DHT22;64029;48.244;9.188;2022-10-31T14:31:54;16.30;80.90
75451;DHT22;64029;48.244;9.188;2022-10-31T14:34:25;16.30;81.60
75451;DHT22;64029;48.244;9.188;2022-10-31T14:37:16;16.20;81.60
75451;DHT22;64029;48.244;9.188;2022-10-31T14:39:56;16.20;81.70
75451;DHT22;64029;48.244;9.188;2022-10-31T14:42:39;16.10;81.70
75451;DHT22;64029;48.244;9.188;2022-10-31T14:45:34;16.10;81.70
75451;DHT22;64029;48.244;9.188;2022-10-31T14:48:13;16.00;81.30
75451;DHT22;64029;48.244;9.188;2022-10-31T14:50:47;15.90;81.20
75451;DHT22;64029;48.244;9.188;2022-10-31T14:53:24;15.90;81.10
75451;DHT22;64029;48.244;9.188;2022-10-31T14:55:56;15.80;81.20
75451;DHT22;64029;48.244;9.188;2022-10-31T14:58:25;15.80;81.30
75451;DHT22;64029;48.244;9.188;2022-10-31T15:00:57;15.70;81.10
75451;DHT22;64029;48.244;9.188;2022-10-31T15:03:29;15.70;81.10
75451;DHT22;64029;48.244;9.188;2022-10-31T15:05:59;15.60;80.70
75451;DHT22;64029;48.244;9.188;2022-10-31T15:08:32;15.50;80.70
75451;DHT22;64029;48.244;9.188;2022-10-31T15:11:03;15.40;80.60
75451;DHT22;64029;48.244;9.188;2022-10-31T15:13:29;15.40;80.50
75451;DHT22;64029;48.244;9.188;2022-10-31T15:15:56;15.30;80.50
75451;DHT22;64029;48.244;9.188;2022-10-31T15:18:25;15.20;80.20
75451;DHT22;64029;48.244;9.188;2022-10-31T15:20:54;15.10;80.10
75451;DHT22;64029;48.244;9.188;2022-10-31T15:23:23;15.10;80.40
75451;DHT22;64029;48.244;9.188;2022-10-31T15:25:50;15.00;80.20
75451;DHT22;64029;48.244;9.188;2022-10-31T15:28:25;15.00;80.30
75451;DHT22;64029;48.244;9.188;2022-10-31T15:30:54;14.90;80.10
75451;DHT22;64029;48.244;9.188;2022-10-31T15:33:23;14.90;80.10
75451;DHT22;64029;48.244;9.188;2022-10-31T15:35:58;14.80;80.10
75451;DHT22;64029;48.244;9.188;2022-10-31T15:38:25;14.70;80.00
75451;DHT22;64029;48.244;9.188;2022-10-31T15:40:58;14.60;79.80
75451;DHT22;64029;48.244;9.188;2022-10-31T15:43:29;14.50;79.60
75451;DHT22;64029;48.244;9.188;2022-10-31T15:46:00;14.40;79.60
75451;DHT22;64029;48.244;9.188;2022-10-31T15:48:28;14.40;79.70
75451;DHT22;64029;48.244;9.188;2022-10-31T15:50:57;14.30;79.70
75451;DHT22;64029;48.244;9.188;2022-10-31T15:53:27;14.30;79.70
75451;DHT22;64029;48.244;9.188;2022-10-31T15:55:59;14.20;80.30
75451;DHT22;64029;48.244;9.188;2022-10-31T15:58:28;14.10;79.60
75451;DHT22;64029;48.244;9.188;2022-10-31T16:00:57;14.10;79.60
75451;DHT22;64029;48.244;9.188;2022-10-31T16:03:26;14.00;79.50
75451;DHT22;64029;48.244;9.188;2022-10-31T16:05:55;14.00;79.60